sensor_id;sensor_type;location;lat;lon;timestamp;P1;durP1;ratioP1;P2;durP2;ratioP2
45522;SDS011;31254;51.680;5.394;2022-11-06T00:01:08;8.63;;;4.43;;
45522;SDS011;31254;51.680;5.394;2022-11-06T00:03:36;12.95;;;4.95;;
45522;SDS011;31254;51.680;5.394;2022-11-06T00:06:06;7.15;;;4.55;;
45522;SDS011;31254;51.680;5.394;2022-11-06T00:08:53;10.52;;;4.88;;
45522;SDS011;31254;51.680;5.394;2022-11-06T00:11:22;11.77;;;4.45;;
45522;SDS011;31254;51.680;5.394;2022-11-06T00:13:49;10.00;;;4.10;;
45522;SDS011;31254;51.680;5.394;2022-11-06T00:16:20;11.70;;;5.00;;
45522;SDS011;31254;51.680;5.394;2022-11-06T00:18:47;10.70;;;4.88;;
45522;SDS011;31254;51.680;5.394;2022-11-06T00:21:15;11.30;;;5.10;;
45522;SDS011;31254;51.680;5.394;2022-11-06T00:23:45;10.10;;;4.35;;
45522;SDS011;31254;51.680;5.394;2022-11-06T00:26:13;13.43;;;4.25;;
45522;SDS011;31254;51.680;5.394;2022-11-06T00:28:41;12.88;;;3.92;;
45522;SDS011;31254;51.680;5.394;2022-11-06T00:31:10;7.30;;;3.92;;
45522;SDS011;31254;51.680;5.394;2022-11-06T00:33:38;8.73;;;3.60;;
45522;SDS011;31254;51.680;5.394;2022-11-06T00:36:06;11.02;;;4.28;;
45522;SDS011;31254;51.680;5.394;2022-11-06T00:38:34;11.50;;;4.35;;
45522;SDS011;31254;51.680;5.394;2022-11-06T00:41:11;20.23;;;4.47;;
45522;SDS011;31254;51.680;5.394;2022-11-06T00:43:39;10.90;;;3.63;;
45522;SDS011;31254;51.680;5.394;2022-11-06T00:46:08;12.77;;;3.78;;
45522;SDS011;31254;51.680;5.394;2022-11-06T00:48:36;10.10;;;3.17;;
45522;SDS011;31254;51.680;5.394;2022-11-06T00:51:08;9.57;;;3.83;;
45522;SDS011;31254;51.680;5.394;2022-11-06T00:53:40;8.20;;;3.00;;
45522;SDS011;31254;51.680;5.394;2022-11-06T00:56:10;10.02;;;3.38;;
45522;SDS011;31254;51.680;5.394;2022-11-06T00:58:41;9.00;;;3.63;;
45522;SDS011;31254;51.680;5.394;2022-11-06T01:01:12;8.80;;;3.17;;
45522;SDS011;31254;51.680;5.394;2022-11-06T01:03:41;7.32;;;3.05;;
45522;SDS011;31254;51.680;5.394;2022-11-06T01:06:17;8.48;;;3.35;;
45522;SDS011;31254;51.680;5.394;2022-11-06T01:08:45;8.18;;;3.17;;
45522;SDS011;31254;51.680;5.394;2022-11-06T01:11:16;11.35;;;3.08;;
45522;SDS011;31254;51.680;5.394;2022-11-06T01:13:45;8.48;;;3.03;;
45522;SDS011;31254;51.680;5.394;2022-11-06T01:16:18;5.40;;;2.83;;
45522;SDS011;31254;51.680;5.394;2022-11-06T01:18:47;11.27;;;2.97;;
45522;SDS011;31254;51.680;5.394;2022-11-06T01:21:18;10.18;;;3.35;;
45522;SDS011;31254;51.680;5.394;2022-11-06T01:23:58;8.75;;;3.00;;
45522;SDS011;31254;51.680;5.394;2022-11-06T01:26:28;11.25;;;3.45;;
45522;SDS011;31254;51.680;5.394;2022-11-06T01:29:05;10.02;;;3.13;;
45522;SDS011;31254;51.680;5.394;2022-11-06T01:31:35;7.72;;;3.50;;
45522;SDS011;31254;51.680;5.394;2022-11-06T01:34:02;8.38;;;3.17;;
45522;SDS011;31254;51.680;5.394;2022-11-06T01:36:29;8.20;;;3.05;;
45522;SDS011;31254;51.680;5.394;2022-11-06T01:38:59;9.88;;;3.33;;
45522;SDS011;31254;51.680;5.394;2022-11-06T01:41:28;4.78;;;2.63;;
45522;SDS011;31254;51.680;5.394;2022-11-06T01:43:58;10.68;;;2.92;;
45522;SDS011;31254;51.680;5.394;2022-11-06T01:46:35;12.27;;;2.80;;
45522;SDS011;31254;51.680;5.394;2022-11-06T01:49:09;11.07;;;2.92;;
45522;SDS011;31254;51.680;5.394;2022-11-06T01:51:43;14.85;;;3.00;;
45522;SDS011;31254;51.680;5.394;2022-11-06T01:54:14;8.57;;;2.53;;
45522;SDS011;31254;51.680;5.394;2022-11-06T01:56:42;9.27;;;2.75;;
45522;SDS011;31254;51.680;5.394;2022-11-06T01:59:12;7.85;;;2.65;;
45522;SDS011;31254;51.680;5.394;2022-11-06T02:01:42;7.93;;;2.67;;
45522;SDS011;31254;51.680;5.394;2022-11-06T02:04:12;11.60;;;2.70;;
45522;SDS011;31254;51.680;5.394;2022-11-06T02:06:42;7.35;;;2.85;;
45522;SDS011;31254;51.680;5.394;2022-11-06T02:09:10;8.23;;;2.88;;
45522;SDS011;31254;51.680;5.394;2022-11-06T02:11:38;10.80;;;2.92;;
45522;SDS011;31254;51.680;5.394;2022-11-06T02:16:46;12.00;;;2.50;;
45522;SDS011;31254;51.680;5.394;2022-11-06T02:25:23;8.13;;;2.90;;
45522;SDS011;31254;51.680;5.394;2022-11-06T02:27:53;8.27;;;2.67;;
45522;SDS011;31254;51.680;5.394;2022-11-06T02:30:29;8.57;;;2.88;;
45522;SDS011;31254;51.680;5.394;2022-11-06T02:33:03;12.93;;;2.63;;
45522;SDS011;31254;51.680;5.394;2022-11-06T02:35:39;8.00;;;2.58;;
45522;SDS011;31254;51.680;5.394;2022-11-06T02:38:10;8.75;;;2.83;;
45522;SDS011;31254;51.680;5.394;2022-11-06T02:40:42;5.97;;;2.72;;
45522;SDS011;31254;51.680;5.394;2022-11-06T02:43:13;8.32;;;3.00;;
45522;SDS011;31254;51.680;5.394;2022-11-06T02:45:47;11.65;;;2.55;;
45522;SDS011;31254;51.680;5.394;2022-11-06T02:48:22;9.43;;;2.45;;
45522;SDS011;31254;51.680;5.394;2022-11-06T02:50:54;7.65;;;2.22;;
45522;SDS011;31254;51.680;5.394;2022-11-06T02:53:24;8.75;;;2.53;;
45522;SDS011;31254;51.680;5.394;2022-11-06T02:55:54;10.40;;;2.47;;
45522;SDS011;31254;51.680;5.394;2022-11-06T02:58:34;12.25;;;2.80;;
45522;SDS011;31254;51.680;5.394;2022-11-06T03:01:25;9.15;;;2.60;;
45522;SDS011;31254;51.680;5.394;2022-11-06T03:03:58;8.75;;;2.08;;
45522;SDS011;31254;51.680;5.394;2022-11-06T03:06:38;9.32;;;2.10;;
45522;SDS011;31254;51.680;5.394;2022-11-06T03:09:27;8.35;;;2.40;;
45522;SDS011;31254;51.680;5.394;2022-11-06T03:14:48;13.48;;;2.80;;
45522;SDS011;31254;51.680;5.394;2022-11-06T03:17:28;7.90;;;2.20;;
45522;SDS011;31254;51.680;5.394;2022-11-06T03:25:20;8.68;;;2.22;;
45522;SDS011;31254;51.680;5.394;2022-11-06T03:28:10;8.23;;;2.45;;
45522;SDS011;31254;51.680;5.394;2022-11-06T03:30:51;8.73;;;2.08;;
45522;SDS011;31254;51.680;5.394;2022-11-06T03:36:14;9.43;;;2.35;;
45522;SDS011;31254;51.680;5.394;2022-11-06T03:38:49;9.27;;;2.22;;
45522;SDS011;31254;51.680;5.394;2022-11-06T03:41:33;9.23;;;2.53;;
45522;SDS011;31254;51.680;5.394;2022-11-06T03:44:07;10.73;;;3.38;;
45522;SDS011;31254;51.680;5.394;2022-11-06T03:46:39;5.53;;;1.73;;
45522;SDS011;31254;51.680;5.394;2022-11-06T03:49:17;12.00;;;2.08;;
45522;SDS011;31254;51.680;5.394;2022-11-06T03:51:53;9.45;;;2.20;;
45522;SDS011;31254;51.680;5.394;2022-11-06T03:54:26;13.23;;;2.30;;
45522;SDS011;31254;51.680;5.394;2022-11-06T03:57:02;13.55;;;2.60;;
45522;SDS011;31254;51.680;5.394;2022-11-06T03:59:37;9.07;;;2.55;;
45522;SDS011;31254;51.680;5.394;2022-11-06T04:02:07;5.60;;;2.00;;
45522;SDS011;31254;51.680;5.394;2022-11-06T04:04:46;10.35;;;2.20;;
45522;SDS011;31254;51.680;5.394;2022-11-06T04:07:21;6.95;;;1.95;;
45522;SDS011;31254;51.680;5.394;2022-11-06T04:09:53;6.80;;;1.92;;
45522;SDS011;31254;51.680;5.394;2022-11-06T04:12:43;12.15;;;2.60;;
45522;SDS011;31254;51.680;5.394;2022-11-06T04:15:37;9.88;;;2.33;;
45522;SDS011;31254;51.680;5.394;2022-11-06T04:18:13;10.85;;;2.53;;
45522;SDS011;31254;51.680;5.394;2022-11-06T04:24:44;6.35;;;2.10;;
45522;SDS011;31254;51.680;5.394;2022-11-06T04:40:53;9.50;;;2.45;;
45522;SDS011;31254;51.680;5.394;2022-11-06T04:43:44;7.00;;;2.20;;
45522;SDS011;31254;51.680;5.394;2022-11-06T04:46:22;10.30;;;2.10;;
45522;SDS011;31254;51.680;5.394;2022-11-06T04:48:54;7.30;;;2.30;;
45522;SDS011;31254;51.680;5.394;2022-11-06T04:51:22;8.60;;;2.28;;
45522;SDS011;31254;51.680;5.394;2022-11-06T04:53:51;10.70;;;2.58;;
45522;SDS011;31254;51.680;5.394;2022-11-06T04:56:24;8.75;;;2.17;;
45522;SDS011;31254;51.680;5.394;2022-11-06T04:58:56;12.32;;;2.15;;
45522;SDS011;31254;51.680;5.394;2022-11-06T05:01:28;7.50;;;2.03;;
45522;SDS011;31254;51.680;5.394;2022-11-06T05:03:57;8.40;;;2.20;;
45522;SDS011;31254;51.680;5.394;2022-11-06T05:06:24;9.50;;;2.00;;
45522;SDS011;31254;51.680;5.394;2022-11-06T05:08:55;6.75;;;1.85;;
45522;SDS011;31254;51.680;5.394;2022-11-06T05:11:23;8.07;;;1.90;;
45522;SDS011;31254;51.680;5.394;2022-11-06T05:13:50;7.55;;;2.45;;
45522;SDS011;31254;51.680;5.394;2022-11-06T05:16:21;6.32;;;2.13;;
45522;SDS011;31254;51.680;5.394;2022-11-06T05:18:48;6.70;;;2.17;;
45522;SDS011;31254;51.680;5.394;2022-11-06T05:21:14;9.45;;;2.08;;
45522;SDS011;31254;51.680;5.394;2022-11-06T05:24:00;7.55;;;2.40;;
45522;SDS011;31254;51.680;5.394;2022-11-06T05:26:27;6.63;;;1.90;;
45522;SDS011;31254;51.680;5.394;2022-11-06T05:28:55;8.43;;;2.13;;
45522;SDS011;31254;51.680;5.394;2022-11-06T05:31:22;8.07;;;2.17;;
45522;SDS011;31254;51.680;5.394;2022-11-06T05:33:49;7.82;;;2.25;;
45522;SDS011;31254;51.680;5.394;2022-11-06T05:36:15;8.40;;;1.90;;
45522;SDS011;31254;51.680;5.394;2022-11-06T05:38:44;5.93;;;2.30;;
45522;SDS011;31254;51.680;5.394;2022-11-06T05:41:17;6.30;;;2.00;;
45522;SDS011;31254;51.680;5.394;2022-11-06T05:43:43;13.85;;;2.00;;
45522;SDS011;31254;51.680;5.394;2022-11-06T05:46:10;9.95;;;2.25;;
45522;SDS011;31254;51.680;5.394;2022-11-06T05:48:56;10.55;;;2.13;;
45522;SDS011;31254;51.680;5.394;2022-11-06T05:51:23;9.60;;;2.30;;
45522;SDS011;31254;51.680;5.394;2022-11-06T05:53:52;7.95;;;1.85;;
45522;SDS011;31254;51.680;5.394;2022-11-06T05:56:20;7.22;;;1.90;;
45522;SDS011;31254;51.680;5.394;2022-11-06T05:58:47;6.30;;;2.33;;
45522;SDS011;31254;51.680;5.394;2022-11-06T06:01:16;6.60;;;2.15;;
45522;SDS011;31254;51.680;5.394;2022-11-06T06:03:45;6.70;;;2.15;;
45522;SDS011;31254;51.680;5.394;2022-11-06T06:06:14;5.28;;;2.20;;
45522;SDS011;31254;51.680;5.394;2022-11-06T06:08:41;5.53;;;1.90;;
45522;SDS011;31254;51.680;5.394;2022-11-06T06:11:07;6.85;;;2.30;;
45522;SDS011;31254;51.680;5.394;2022-11-06T06:13:35;8.60;;;2.28;;
45522;SDS011;31254;51.680;5.394;2022-11-06T06:16:03;3.92;;;1.80;;
45522;SDS011;31254;51.680;5.394;2022-11-06T06:18:30;5.47;;;1.90;;
45522;SDS011;31254;51.680;5.394;2022-11-06T06:20:56;8.85;;;2.28;;
45522;SDS011;31254;51.680;5.394;2022-11-06T06:23:24;6.68;;;2.42;;
45522;SDS011;31254;51.680;5.394;2022-11-06T06:25:51;12.18;;;2.38;;
45522;SDS011;31254;51.680;5.394;2022-11-06T06:28:17;6.43;;;2.15;;
45522;SDS011;31254;51.680;5.394;2022-11-06T06:30:44;7.22;;;2.10;;
45522;SDS011;31254;51.680;5.394;2022-11-06T06:33:11;10.55;;;2.35;;
45522;SDS011;31254;51.680;5.394;2022-11-06T06:35:38;5.75;;;1.75;;
45522;SDS011;31254;51.680;5.394;2022-11-06T06:38:04;8.30;;;1.95;;
45522;SDS011;31254;51.680;5.394;2022-11-06T06:40:31;5.78;;;1.92;;
45522;SDS011;31254;51.680;5.394;2022-11-06T06:42:58;5.30;;;2.20;;
45522;SDS011;31254;51.680;5.394;2022-11-06T06:45:25;9.25;;;2.00;;
45522;SDS011;31254;51.680;5.394;2022-11-06T06:47:52;5.40;;;2.15;;
45522;SDS011;31254;51.680;5.394;2022-11-06T06:50:18;7.55;;;1.90;;
45522;SDS011;31254;51.680;5.394;2022-11-06T06:52:45;3.75;;;1.73;;
45522;SDS011;31254;51.680;5.394;2022-11-06T06:55:12;9.98;;;1.60;;
45522;SDS011;31254;51.680;5.394;2022-11-06T06:57:39;3.33;;;1.77;;
45522;SDS011;31254;51.680;5.394;2022-11-06T07:00:08;5.30;;;1.70;;
45522;SDS011;31254;51.680;5.394;2022-11-06T07:02:35;6.18;;;1.75;;
45522;SDS011;31254;51.680;5.394;2022-11-06T07:05:02;5.95;;;2.22;;
45522;SDS011;31254;51.680;5.394;2022-11-06T07:07:29;6.15;;;1.60;;
45522;SDS011;31254;51.680;5.394;2022-11-06T07:09:55;6.90;;;1.83;;
45522;SDS011;31254;51.680;5.394;2022-11-06T07:12:24;5.22;;;1.73;;
45522;SDS011;31254;51.680;5.394;2022-11-06T07:14:50;6.30;;;1.95;;
45522;SDS011;31254;51.680;5.394;2022-11-06T07:17:17;10.05;;;1.50;;
45522;SDS011;31254;51.680;5.394;2022-11-06T07:19:46;5.38;;;1.85;;
45522;SDS011;31254;51.680;5.394;2022-11-06T07:22:12;5.43;;;1.45;;
45522;SDS011;31254;51.680;5.394;2022-11-06T07:24:39;6.88;;;1.83;;
45522;SDS011;31254;51.680;5.394;2022-11-06T07:27:06;3.33;;;1.65;;
45522;SDS011;31254;51.680;5.394;2022-11-06T07:29:33;6.00;;;2.03;;
45522;SDS011;31254;51.680;5.394;2022-11-06T07:31:59;6.03;;;1.55;;
45522;SDS011;31254;51.680;5.394;2022-11-06T07:34:26;5.35;;;1.50;;
45522;SDS011;31254;51.680;5.394;2022-11-06T07:36:55;7.97;;;1.60;;
45522;SDS011;31254;51.680;5.394;2022-11-06T07:39:30;6.13;;;1.80;;
45522;SDS011;31254;51.680;5.394;2022-11-06T07:41:56;5.75;;;1.80;;
45522;SDS011;31254;51.680;5.394;2022-11-06T07:44:23;3.90;;;1.33;;
45522;SDS011;31254;51.680;5.394;2022-11-06T07:46:50;6.05;;;2.10;;
45522;SDS011;31254;51.680;5.394;2022-11-06T07:49:16;6.90;;;1.50;;
45522;SDS011;31254;51.680;5.394;2022-11-06T07:51:43;7.43;;;1.85;;
45522;SDS011;31254;51.680;5.394;2022-11-06T07:54:10;4.13;;;1.67;;
45522;SDS011;31254;51.680;5.394;2022-11-06T07:56:37;12.13;;;1.98;;
45522;SDS011;31254;51.680;5.394;2022-11-06T07:59:04;4.80;;;1.65;;
45522;SDS011;31254;51.680;5.394;2022-11-06T08:01:33;7.47;;;2.05;;
45522;SDS011;31254;51.680;5.394;2022-11-06T08:04:05;10.35;;;1.70;;
45522;SDS011;31254;51.680;5.394;2022-11-06T08:06:33;4.68;;;1.35;;
45522;SDS011;31254;51.680;5.394;2022-11-06T08:09:05;8.98;;;1.80;;
45522;SDS011;31254;51.680;5.394;2022-11-06T08:11:38;6.38;;;1.70;;
45522;SDS011;31254;51.680;5.394;2022-11-06T08:14:09;8.30;;;1.52;;
45522;SDS011;31254;51.680;5.394;2022-11-06T08:16:37;7.53;;;1.60;;
45522;SDS011;31254;51.680;5.394;2022-11-06T08:19:10;4.65;;;1.35;;
45522;SDS011;31254;51.680;5.394;2022-11-06T08:21:42;4.05;;;1.48;;
45522;SDS011;31254;51.680;5.394;2022-11-06T08:24:15;9.48;;;1.70;;
45522;SDS011;31254;51.680;5.394;2022-11-06T08:26:47;8.32;;;1.70;;
45522;SDS011;31254;51.680;5.394;2022-11-06T08:29:22;7.68;;;1.48;;
45522;SDS011;31254;51.680;5.394;2022-11-06T08:31:51;3.83;;;1.40;;
45522;SDS011;31254;51.680;5.394;2022-11-06T08:34:18;6.25;;;1.77;;
45522;SDS011;31254;51.680;5.394;2022-11-06T08:36:44;7.55;;;1.50;;
45522;SDS011;31254;51.680;5.394;2022-11-06T08:39:15;8.05;;;1.63;;
45522;SDS011;31254;51.680;5.394;2022-11-06T08:41:41;6.38;;;1.40;;
45522;SDS011;31254;51.680;5.394;2022-11-06T08:44:10;9.07;;;1.50;;
45522;SDS011;31254;51.680;5.394;2022-11-06T08:46:37;6.57;;;1.50;;
45522;SDS011;31254;51.680;5.394;2022-11-06T08:49:03;5.10;;;1.60;;
45522;SDS011;31254;51.680;5.394;2022-11-06T08:51:30;4.85;;;1.48;;
45522;SDS011;31254;51.680;5.394;2022-11-06T08:53:57;2.95;;;1.20;;
45522;SDS011;31254;51.680;5.394;2022-11-06T08:56:24;5.53;;;1.65;;
45522;SDS011;31254;51.680;5.394;2022-11-06T08:58:56;5.47;;;1.35;;
45522;SDS011;31254;51.680;5.394;2022-11-06T09:01:22;8.85;;;1.30;;
45522;SDS011;31254;51.680;5.394;2022-11-06T09:03:49;5.88;;;1.50;;
45522;SDS011;31254;51.680;5.394;2022-11-06T09:06:16;3.58;;;1.10;;
45522;SDS011;31254;51.680;5.394;2022-11-06T09:08:45;5.72;;;1.30;;
45522;SDS011;31254;51.680;5.394;2022-11-06T09:11:13;3.45;;;1.23;;
45522;SDS011;31254;51.680;5.394;2022-11-06T09:13:40;5.72;;;1.08;;
45522;SDS011;31254;51.680;5.394;2022-11-06T09:16:07;6.43;;;1.17;;
45522;SDS011;31254;51.680;5.394;2022-11-06T09:18:40;5.28;;;1.25;;
45522;SDS011;31254;51.680;5.394;2022-11-06T09:21:07;5.00;;;1.42;;
45522;SDS011;31254;51.680;5.394;2022-11-06T09:23:34;7.60;;;1.60;;
45522;SDS011;31254;51.680;5.394;2022-11-06T09:26:00;4.28;;;1.40;;
45522;SDS011;31254;51.680;5.394;2022-11-06T09:28:27;4.85;;;1.38;;
45522;SDS011;31254;51.680;5.394;2022-11-06T09:30:56;4.55;;;1.60;;
45522;SDS011;31254;51.680;5.394;2022-11-06T09:33:23;7.15;;;1.55;;
45522;SDS011;31254;51.680;5.394;2022-11-06T09:35:49;3.65;;;1.30;;
45522;SDS011;31254;51.680;5.394;2022-11-06T09:38:16;5.53;;;1.88;;
45522;SDS011;31254;51.680;5.394;2022-11-06T09:40:51;4.57;;;1.20;;
45522;SDS011;31254;51.680;5.394;2022-11-06T09:46:30;14.35;;;1.77;;
45522;SDS011;31254;51.680;5.394;2022-11-06T09:49:09;4.88;;;1.42;;
45522;SDS011;31254;51.680;5.394;2022-11-06T09:51:47;4.28;;;1.20;;
45522;SDS011;31254;51.680;5.394;2022-11-06T09:57:04;6.20;;;1.45;;
45522;SDS011;31254;51.680;5.394;2022-11-06T09:59:39;3.40;;;1.05;;
45522;SDS011;31254;51.680;5.394;2022-11-06T10:07:32;3.63;;;1.27;;
45522;SDS011;31254;51.680;5.394;2022-11-06T10:10:02;4.80;;;1.50;;
45522;SDS011;31254;51.680;5.394;2022-11-06T10:15:03;9.32;;;1.73;;
45522;SDS011;31254;51.680;5.394;2022-11-06T10:17:53;2.97;;;1.02;;
45522;SDS011;31254;51.680;5.394;2022-11-06T10:23:30;5.45;;;1.23;;
45522;SDS011;31254;51.680;5.394;2022-11-06T10:26:16;6.57;;;1.30;;
45522;SDS011;31254;51.680;5.394;2022-11-06T10:34:24;6.03;;;1.13;;
45522;SDS011;31254;51.680;5.394;2022-11-06T10:36:55;5.05;;;1.10;;
45522;SDS011;31254;51.680;5.394;2022-11-06T10:39:31;5.50;;;1.10;;
45522;SDS011;31254;51.680;5.394;2022-11-06T10:42:04;3.65;;;1.02;;
45522;SDS011;31254;51.680;5.394;2022-11-06T10:44:47;7.18;;;1.42;;
45522;SDS011;31254;51.680;5.394;2022-11-06T10:47:22;6.22;;;1.10;;
45522;SDS011;31254;51.680;5.394;2022-11-06T10:49:54;3.67;;;0.77;;
45522;SDS011;31254;51.680;5.394;2022-11-06T10:57:37;4.50;;;1.23;;
45522;SDS011;31254;51.680;5.394;2022-11-06T11:00:12;4.85;;;1.13;;
45522;SDS011;31254;51.680;5.394;2022-11-06T11:02:47;5.10;;;1.33;;
45522;SDS011;31254;51.680;5.394;2022-11-06T11:05:18;2.38;;;0.80;;
45522;SDS011;31254;51.680;5.394;2022-11-06T11:07:48;5.05;;;0.90;;
45522;SDS011;31254;51.680;5.394;2022-11-06T11:10:29;9.20;;;1.25;;
45522;SDS011;31254;51.680;5.394;2022-11-06T11:13:01;3.97;;;1.13;;
45522;SDS011;31254;51.680;5.394;2022-11-06T11:15:44;5.90;;;1.10;;
45522;SDS011;31254;51.680;5.394;2022-11-06T11:20:39;4.82;;;1.40;;
45522;SDS011;31254;51.680;5.394;2022-11-06T11:28:25;4.07;;;1.05;;
45522;SDS011;31254;51.680;5.394;2022-11-06T11:33:32;5.15;;;1.73;;
45522;SDS011;31254;51.680;5.394;2022-11-06T11:35:59;4.78;;;1.20;;
45522;SDS011;31254;51.680;5.394;2022-11-06T11:38:27;5.97;;;1.00;;
45522;SDS011;31254;51.680;5.394;2022-11-06T11:41:04;5.55;;;1.45;;
45522;SDS011;31254;51.680;5.394;2022-11-06T11:43:33;5.65;;;1.00;;
45522;SDS011;31254;51.680;5.394;2022-11-06T11:48:40;5.32;;;1.10;;
45522;SDS011;31254;51.680;5.394;2022-11-06T11:51:12;4.38;;;1.23;;
45522;SDS011;31254;51.680;5.394;2022-11-06T11:53:40;3.25;;;0.77;;
45522;SDS011;31254;51.680;5.394;2022-11-06T11:56:11;4.72;;;1.20;;
45522;SDS011;31254;51.680;5.394;2022-11-06T11:58:46;8.07;;;1.13;;
45522;SDS011;31254;51.680;5.394;2022-11-06T12:01:16;8.80;;;1.35;;
45522;SDS011;31254;51.680;5.394;2022-11-06T12:03:45;2.63;;;0.90;;
45522;SDS011;31254;51.680;5.394;2022-11-06T12:06:15;4.78;;;0.98;;
45522;SDS011;31254;51.680;5.394;2022-11-06T12:08:45;3.50;;;0.90;;
45522;SDS011;31254;51.680;5.394;2022-11-06T12:11:18;4.65;;;1.20;;
45522;SDS011;31254;51.680;5.394;2022-11-06T12:16:49;5.65;;;0.98;;
45522;SDS011;31254;51.680;5.394;2022-11-06T12:19:18;3.47;;;1.15;;
45522;SDS011;31254;51.680;5.394;2022-11-06T12:21:53;4.38;;;0.85;;
45522;SDS011;31254;51.680;5.394;2022-11-06T12:24:26;7.00;;;0.98;;
45522;SDS011;31254;51.680;5.394;2022-11-06T12:27:03;2.95;;;0.90;;
45522;SDS011;31254;51.680;5.394;2022-11-06T12:30:19;6.32;;;1.35;;
45522;SDS011;31254;51.680;5.394;2022-11-06T12:38:10;7.20;;;1.40;;
45522;SDS011;31254;51.680;5.394;2022-11-06T13:08:34;6.35;;;1.25;;
45522;SDS011;31254;51.680;5.394;2022-11-06T13:14:11;9.98;;;1.20;;
45522;SDS011;31254;51.680;5.394;2022-11-06T13:25:20;2.95;;;1.00;;
45522;SDS011;31254;51.680;5.394;2022-11-06T13:30:25;3.85;;;1.30;;
45522;SDS011;31254;51.680;5.394;2022-11-06T13:35:54;5.15;;;1.20;;
45522;SDS011;31254;51.680;5.394;2022-11-06T13:38:26;5.18;;;1.13;;
45522;SDS011;31254;51.680;5.394;2022-11-06T13:41:05;3.33;;;0.90;;
45522;SDS011;31254;51.680;5.394;2022-11-06T13:43:47;6.55;;;1.20;;
45522;SDS011;31254;51.680;5.394;2022-11-06T13:49:32;4.93;;;1.15;;
45522;SDS011;31254;51.680;5.394;2022-11-06T13:52:00;2.45;;;0.93;;
45522;SDS011;31254;51.680;5.394;2022-11-06T14:10:54;4.13;;;1.02;;
45522;SDS011;31254;51.680;5.394;2022-11-06T14:13:27;7.15;;;1.23;;
45522;SDS011;31254;51.680;5.394;2022-11-06T14:16:39;3.67;;;1.30;;
45522;SDS011;31254;51.680;5.394;2022-11-06T14:18:53;5.03;;;1.10;;
45522;SDS011;31254;51.680;5.394;2022-11-06T14:21:34;8.13;;;1.23;;
45522;SDS011;31254;51.680;5.394;2022-11-06T14:26:45;2.75;;;0.95;;
45522;SDS011;31254;51.680;5.394;2022-11-06T14:32:54;5.00;;;1.23;;
45522;SDS011;31254;51.680;5.394;2022-11-06T14:34:49;3.28;;;1.10;;
45522;SDS011;31254;51.680;5.394;2022-11-06T14:44:53;6.72;;;1.15;;
45522;SDS011;31254;51.680;5.394;2022-11-06T14:47:35;4.05;;;1.25;;
45522;SDS011;31254;51.680;5.394;2022-11-06T14:50:22;4.45;;;1.50;;
45522;SDS011;31254;51.680;5.394;2022-11-06T14:53:50;4.22;;;1.02;;
45522;SDS011;31254;51.680;5.394;2022-11-06T14:56:09;6.47;;;1.20;;
45522;SDS011;31254;51.680;5.394;2022-11-06T14:58:38;3.33;;;1.10;;
45522;SDS011;31254;51.680;5.394;2022-11-06T15:01:13;3.45;;;1.00;;
45522;SDS011;31254;51.680;5.394;2022-11-06T15:03:54;5.75;;;1.20;;
45522;SDS011;31254;51.680;5.394;2022-11-06T15:09:00;4.22;;;1.00;;
45522;SDS011;31254;51.680;5.394;2022-11-06T15:16:43;4.82;;;1.17;;
45522;SDS011;31254;51.680;5.394;2022-11-06T15:24:24;3.78;;;1.20;;
45522;SDS011;31254;51.680;5.394;2022-11-06T15:26:57;3.90;;;1.30;;
45522;SDS011;31254;51.680;5.394;2022-11-06T15:29:36;8.65;;;1.20;;
45522;SDS011;31254;51.680;5.394;2022-11-06T15:32:10;3.95;;;1.10;;
45522;SDS011;31254;51.680;5.394;2022-11-06T15:34:41;5.35;;;1.80;;
45522;SDS011;31254;51.680;5.394;2022-11-06T15:37:17;3.13;;;1.45;;
45522;SDS011;31254;51.680;5.394;2022-11-06T15:39:52;3.72;;;1.40;;
45522;SDS011;31254;51.680;5.394;2022-11-06T15:42:35;4.25;;;1.92;;
45522;SDS011;31254;51.680;5.394;2022-11-06T15:45:15;2.60;;;1.52;;
45522;SDS011;31254;51.680;5.394;2022-11-06T15:50:34;3.83;;;1.77;;
45522;SDS011;31254;51.680;5.394;2022-11-06T15:53:26;5.60;;;2.35;;
45522;SDS011;31254;51.680;5.394;2022-11-06T15:55:59;8.05;;;2.20;;
45522;SDS011;31254;51.680;5.394;2022-11-06T15:58:33;5.32;;;1.75;;
45522;SDS011;31254;51.680;5.394;2022-11-06T16:01:04;4.18;;;1.60;;
45522;SDS011;31254;51.680;5.394;2022-11-06T16:03:41;6.32;;;1.42;;
45522;SDS011;31254;51.680;5.394;2022-11-06T16:06:14;3.35;;;1.20;;
45522;SDS011;31254;51.680;5.394;2022-11-06T16:08:40;3.50;;;1.40;;
45522;SDS011;31254;51.680;5.394;2022-11-06T16:11:09;5.22;;;1.60;;
45522;SDS011;31254;51.680;5.394;2022-11-06T16:13:39;3.13;;;1.40;;
45522;SDS011;31254;51.680;5.394;2022-11-06T16:16:24;5.03;;;1.30;;
45522;SDS011;31254;51.680;5.394;2022-11-06T16:19:02;3.85;;;1.50;;
45522;SDS011;31254;51.680;5.394;2022-11-06T16:21:33;3.70;;;1.20;;
45522;SDS011;31254;51.680;5.394;2022-11-06T16:24:03;3.83;;;1.40;;
45522;SDS011;31254;51.680;5.394;2022-11-06T16:26:37;4.68;;;1.38;;
45522;SDS011;31254;51.680;5.394;2022-11-06T16:29:11;7.05;;;1.25;;
45522;SDS011;31254;51.680;5.394;2022-11-06T16:31:45;4.45;;;1.50;;
45522;SDS011;31254;51.680;5.394;2022-11-06T16:34:21;6.43;;;1.73;;
45522;SDS011;31254;51.680;5.394;2022-11-06T16:37:45;3.75;;;1.55;;
45522;SDS011;31254;51.680;5.394;2022-11-06T16:39:57;4.20;;;1.90;;
45522;SDS011;31254;51.680;5.394;2022-11-06T16:42:31;5.55;;;1.80;;
45522;SDS011;31254;51.680;5.394;2022-11-06T16:47:33;6.90;;;1.85;;
45522;SDS011;31254;51.680;5.394;2022-11-06T16:50:00;7.50;;;1.58;;
45522;SDS011;31254;51.680;5.394;2022-11-06T16:55:20;5.60;;;1.52;;
45522;SDS011;31254;51.680;5.394;2022-11-06T17:00:23;3.65;;;1.60;;
45522;SDS011;31254;51.680;5.394;2022-11-06T17:03:02;4.53;;;1.50;;
45522;SDS011;31254;51.680;5.394;2022-11-06T17:05:32;2.80;;;1.30;;
45522;SDS011;31254;51.680;5.394;2022-11-06T17:10:44;4.25;;;1.52;;
45522;SDS011;31254;51.680;5.394;2022-11-06T17:13:15;4.20;;;1.88;;
45522;SDS011;31254;51.680;5.394;2022-11-06T17:15:43;9.65;;;3.03;;
45522;SDS011;31254;51.680;5.394;2022-11-06T17:18:13;3.75;;;1.58;;
45522;SDS011;31254;51.680;5.394;2022-11-06T17:20:50;3.47;;;1.95;;
45522;SDS011;31254;51.680;5.394;2022-11-06T17:23:19;5.00;;;1.90;;
45522;SDS011;31254;51.680;5.394;2022-11-06T17:25:50;8.05;;;1.80;;
45522;SDS011;31254;51.680;5.394;2022-11-06T17:28:19;5.60;;;2.03;;
45522;SDS011;31254;51.680;5.394;2022-11-06T17:30:49;4.97;;;1.58;;
45522;SDS011;31254;51.680;5.394;2022-11-06T17:33:15;4.80;;;1.60;;
45522;SDS011;31254;51.680;5.394;2022-11-06T17:35:42;4.15;;;1.45;;
45522;SDS011;31254;51.680;5.394;2022-11-06T17:38:11;5.03;;;1.73;;
45522;SDS011;31254;51.680;5.394;2022-11-06T17:40:39;3.80;;;1.77;;
45522;SDS011;31254;51.680;5.394;2022-11-06T17:43:06;4.82;;;1.50;;
45522;SDS011;31254;51.680;5.394;2022-11-06T17:45:33;3.58;;;1.77;;
45522;SDS011;31254;51.680;5.394;2022-11-06T17:48:00;5.20;;;1.88;;
45522;SDS011;31254;51.680;5.394;2022-11-06T17:50:26;3.63;;;1.63;;
45522;SDS011;31254;51.680;5.394;2022-11-06T17:52:53;4.90;;;1.88;;
45522;SDS011;31254;51.680;5.394;2022-11-06T17:55:19;4.82;;;1.80;;
45522;SDS011;31254;51.680;5.394;2022-11-06T17:57:46;2.70;;;1.50;;
45522;SDS011;31254;51.680;5.394;2022-11-06T18:00:13;5.72;;;1.52;;
45522;SDS011;31254;51.680;5.394;2022-11-06T18:02:39;2.63;;;1.50;;
45522;SDS011;31254;51.680;5.394;2022-11-06T18:05:26;5.65;;;1.70;;
45522;SDS011;31254;51.680;5.394;2022-11-06T18:07:52;5.10;;;1.73;;
45522;SDS011;31254;51.680;5.394;2022-11-06T18:10:19;5.63;;;1.48;;
45522;SDS011;31254;51.680;5.394;2022-11-06T18:12:51;6.53;;;1.70;;
45522;SDS011;31254;51.680;5.394;2022-11-06T18:15:18;5.82;;;1.85;;
45522;SDS011;31254;51.680;5.394;2022-11-06T18:17:44;6.03;;;1.88;;
45522;SDS011;31254;51.680;5.394;2022-11-06T18:20:11;3.38;;;1.70;;
45522;SDS011;31254;51.680;5.394;2022-11-06T18:22:37;4.80;;;1.50;;